createdAt,value
2022-11-05T00:00:52.398Z,99.40
2022-11-05T00:03:55.043Z,99.30
2022-11-05T00:06:41.181Z,99.30
2022-11-05T00:09:29.696Z,99.40
2022-11-05T00:12:18.024Z,99.50
2022-11-05T00:15:03.775Z,99.30
2022-11-05T00:17:31.161Z,99.00
2022-11-05T00:19:59.091Z,99.10
2022-11-05T00:22:45.317Z,99.10
2022-11-05T00:25:17.259Z,98.90
2022-11-05T00:27:49.889Z,99.20
2022-11-05T00:30:23.529Z,99.20
2022-11-05T00:32:52.708Z,99.30
2022-11-05T00:35:22.600Z,99.40
2022-11-05T00:37:50.698Z,99.40
2022-11-05T00:40:18.468Z,99.50
2022-11-05T00:43:04.657Z,99.50
2022-11-05T00:45:32.542Z,99.70
2022-11-05T00:48:18.308Z,99.80
2022-11-05T00:50:45.823Z,99.70
2022-11-05T00:53:13.726Z,99.90
2022-11-05T00:55:44.006Z,99.80
2022-11-05T00:58:17.388Z,99.90
2022-11-05T01:00:49.446Z,99.90
2022-11-05T01:03:19.352Z,99.90
2022-11-05T01:05:52.087Z,99.90
2022-11-05T01:08:21.441Z,99.90
2022-11-05T01:10:54.076Z,99.90
2022-11-05T01:13:28.426Z,99.90
2022-11-05T01:15:57.324Z,99.90
2022-11-05T01:18:25.642Z,99.90
2022-11-05T01:20:53.551Z,99.90
2022-11-05T01:23:21.423Z,99.90
2022-11-05T01:25:49.138Z,99.90
2022-11-05T01:28:16.649Z,99.90
2022-11-05T01:30:44.242Z,99.90
2022-11-05T01:33:11.865Z,99.90
2022-11-05T01:35:40.249Z,99.90
2022-11-05T01:38:07.776Z,99.90
2022-11-05T01:40:35.253Z,99.90
2022-11-05T01:43:02.726Z,99.90
2022-11-05T01:45:30.390Z,99.90
2022-11-05T01:48:13.456Z,99.90
2022-11-05T01:50:55.537Z,99.90
2022-11-05T01:53:34.830Z,99.60
2022-11-05T01:56:28.816Z,99.30
2022-11-05T01:58:59.746Z,99.10
2022-11-05T02:01:28.268Z,98.90
2022-11-05T02:04:03.446Z,98.80
2022-11-05T02:06:35.372Z,98.70
2022-11-05T02:09:31.441Z,98.30
2022-11-05T02:11:59.301Z,98.30
2022-11-05T02:14:26.830Z,98.40
2022-11-05T02:17:04.443Z,98.20
2022-11-05T02:19:50.197Z,98.10
2022-11-05T02:22:52.972Z,97.90
2022-11-05T02:25:45.075Z,97.70
2022-11-05T02:28:21.455Z,97.70
2022-11-05T02:30:48.934Z,97.80
2022-11-05T02:33:31.722Z,97.30
2022-11-05T02:36:23.439Z,97.20
2022-11-05T02:39:05.738Z,97.20
2022-11-05T02:41:51.591Z,96.90
2022-11-05T02:44:54.840Z,97.10
2022-11-05T02:48:03.507Z,96.80
2022-11-05T02:50:37.761Z,96.70
2022-11-05T02:53:14.185Z,96.90
2022-11-05T02:55:49.930Z,96.40
2022-11-05T02:58:17.637Z,96.40
2022-11-05T03:00:53.981Z,96.30
2022-11-05T03:03:35.444Z,96.00
2022-11-05T03:06:26.632Z,95.80
2022-11-05T03:09:14.025Z,95.50
2022-11-05T03:11:56.693Z,95.50
2022-11-05T03:14:36.036Z,95.10
2022-11-05T03:17:27.584Z,94.50
2022-11-05T03:20:15.669Z,94.30
2022-11-05T03:23:02.104Z,94.10
2022-11-05T03:25:30.798Z,93.90
2022-11-05T03:28:03.454Z,93.80
2022-11-05T03:30:34.096Z,93.00
2022-11-05T03:33:08.074Z,93.30
2022-11-05T03:35:40.509Z,92.70
2022-11-05T03:38:14.849Z,92.80
2022-11-05T03:40:45.232Z,93.20
2022-11-05T03:43:14.364Z,93.00
2022-11-05T03:45:48.048Z,93.20
2022-11-05T03:48:18.373Z,93.50
2022-11-05T03:51:12.660Z,93.10
2022-11-05T03:53:58.333Z,92.40
2022-11-05T03:56:37.980Z,92.60
2022-11-05T03:59:08.952Z,92.90
2022-11-05T04:01:38.208Z,92.40
2022-11-05T04:04:09.878Z,93.10
2022-11-05T04:06:55.915Z,92.80
2022-11-05T04:09:41.822Z,93.20
2022-11-05T04:12:29.469Z,92.90
2022-11-05T04:14:57.119Z,92.60
2022-11-05T04:17:24.610Z,93.00
2022-11-05T04:20:10.668Z,92.80
2022-11-05T04:22:56.346Z,92.80
2022-11-05T04:25:23.977Z,92.60
2022-11-05T04:27:51.797Z,92.80
2022-11-05T04:30:19.942Z,92.70
2022-11-05T04:33:01.128Z,92.60
2022-11-05T04:35:31.383Z,92.60
2022-11-05T04:37:59.071Z,92.60
2022-11-05T04:40:26.750Z,92.40
2022-11-05T04:42:55.988Z,92.90
2022-11-05T04:45:28.552Z,92.50
2022-11-05T04:47:55.987Z,92.10
2022-11-05T04:50:24.308Z,92.20
2022-11-05T04:52:52.145Z,92.50
2022-11-05T04:55:20.067Z,92.30
2022-11-05T04:57:52.489Z,92.30
2022-11-05T05:00:22.165Z,92.20
2022-11-05T05:02:49.791Z,92.20
2022-11-05T05:05:18.064Z,92.40
2022-11-05T05:07:46.128Z,92.40
2022-11-05T05:10:13.951Z,92.70
2022-11-05T05:12:41.785Z,92.40
2022-11-05T05:15:09.777Z,92.00
2022-11-05T05:17:37.541Z,91.90
2022-11-05T05:20:23.898Z,91.90
2022-11-05T05:22:55.262Z,92.20
2022-11-05T05:25:23.428Z,92.20
2022-11-05T05:27:51.257Z,92.20
2022-11-05T05:30:19.502Z,92.20
2022-11-05T05:32:47.040Z,92.40
2022-11-05T05:35:14.520Z,92.30
2022-11-05T05:37:42.412Z,92.30
2022-11-05T05:40:10.577Z,92.50
2022-11-05T05:42:42.921Z,92.30
2022-11-05T05:45:11.997Z,92.60
2022-11-05T05:47:39.428Z,92.20
2022-11-05T05:50:07.096Z,92.60
2022-11-05T05:52:34.437Z,92.40
2022-11-05T05:55:01.833Z,92.90
2022-11-05T05:57:29.352Z,92.50
2022-11-05T05:59:56.836Z,93.30
2022-11-05T06:02:24.400Z,93.00
2022-11-05T06:04:51.981Z,92.90
2022-11-05T06:07:19.473Z,92.90
2022-11-05T06:09:46.968Z,92.70
2022-11-05T06:12:14.409Z,93.00
2022-11-05T06:14:41.905Z,92.80
2022-11-05T06:17:09.396Z,92.80
2022-11-05T06:19:36.797Z,93.00
2022-11-05T06:22:04.316Z,93.20
2022-11-05T06:24:31.912Z,93.50
2022-11-05T06:26:59.528Z,93.10
2022-11-05T06:29:27.013Z,93.20
2022-11-05T06:31:54.553Z,92.90
2022-11-05T06:34:22.075Z,93.40
2022-11-05T06:36:49.604Z,93.50
2022-11-05T06:39:17.032Z,93.60
2022-11-05T06:42:12.151Z,93.40
2022-11-05T06:44:32.678Z,93.00
2022-11-05T06:47:00.675Z,93.00
2022-11-05T06:49:28.191Z,93.00
2022-11-05T06:51:55.674Z,93.10
2022-11-05T06:54:23.008Z,93.40
2022-11-05T06:56:50.474Z,93.20
2022-11-05T06:59:17.955Z,93.10
2022-11-05T07:01:45.482Z,93.20
2022-11-05T07:04:13.515Z,93.50
2022-11-05T07:06:40.912Z,93.30
2022-11-05T07:09:08.330Z,92.90
2022-11-05T07:11:36.310Z,93.30
2022-11-05T07:14:03.972Z,93.10
2022-11-05T07:16:31.433Z,93.00
2022-11-05T07:18:58.886Z,93.10
2022-11-05T07:21:26.387Z,93.20
2022-11-05T07:23:53.915Z,93.20
2022-11-05T07:26:21.437Z,93.20
2022-11-05T07:28:48.872Z,92.70
2022-11-05T07:31:16.427Z,92.90
2022-11-05T07:33:43.920Z,93.00
2022-11-05T07:36:11.514Z,92.90
2022-11-05T07:38:39.038Z,93.00
2022-11-05T07:41:06.476Z,92.80
2022-11-05T07:43:33.951Z,92.70
2022-11-05T07:46:01.345Z,93.40
2022-11-05T07:48:28.797Z,92.50
2022-11-05T07:50:56.296Z,92.60
2022-11-05T07:53:23.757Z,92.90
2022-11-05T07:55:53.303Z,93.30
2022-11-05T07:58:20.996Z,93.40
2022-11-05T08:00:48.620Z,93.10
2022-11-05T08:03:18.544Z,93.20
2022-11-05T08:05:48.036Z,93.50
2022-11-05T08:08:18.013Z,93.20
2022-11-05T08:10:46.198Z,93.60
2022-11-05T08:13:14.416Z,93.70
2022-11-05T08:15:43.276Z,93.30
2022-11-05T08:18:16.302Z,93.00
2022-11-05T08:20:46.002Z,93.10
2022-11-05T08:23:14.634Z,92.70
2022-11-05T08:25:42.721Z,92.90
2022-11-05T08:28:13.201Z,93.10
2022-11-05T08:30:41.596Z,92.40
2022-11-05T08:33:14.203Z,92.20
2022-11-05T08:35:42.920Z,92.20
2022-11-05T08:38:16.334Z,92.00
2022-11-05T08:40:46.357Z,92.10
2022-11-05T08:43:15.393Z,92.20
2022-11-05T08:45:43.036Z,92.00
2022-11-05T08:48:15.599Z,92.30
2022-11-05T08:50:44.356Z,91.80
2022-11-05T08:53:12.714Z,92.00
2022-11-05T08:55:40.724Z,91.90
2022-11-05T08:58:15.638Z,91.60
2022-11-05T09:00:46.329Z,91.80
2022-11-05T09:03:14.557Z,91.60
2022-11-05T09:05:43.355Z,91.50
2022-11-05T09:08:18.767Z,91.70
2022-11-05T09:10:47.843Z,91.40
2022-11-05T09:13:19.477Z,91.10
2022-11-05T09:15:49.216Z,91.30
2022-11-05T09:18:18.340Z,91.00
2022-11-05T09:20:46.371Z,91.20
2022-11-05T09:23:15.462Z,91.20
2022-11-05T09:25:43.357Z,91.50
2022-11-05T09:28:19.491Z,91.30
2022-11-05T09:30:49.442Z,90.80
2022-11-05T09:33:19.195Z,90.50
2022-11-05T09:35:47.431Z,90.90
2022-11-05T09:38:15.448Z,91.20
2022-11-05T09:40:57.753Z,90.90
2022-11-05T09:43:44.077Z,90.60
2022-11-05T09:46:30.420Z,90.70
2022-11-05T09:49:04.635Z,90.50
2022-11-05T09:51:33.271Z,90.30
2022-11-05T09:54:02.119Z,90.30
2022-11-05T09:56:33.193Z,90.20
2022-11-05T09:59:45.270Z,90.50
2022-11-05T10:02:26.329Z,90.20
2022-11-05T10:04:58.179Z,90.20
2022-11-05T10:07:30.076Z,90.20
2022-11-05T10:10:03.667Z,90.10
2022-11-05T10:12:37.616Z,90.20
2022-11-05T10:15:17.271Z,90.20
2022-11-05T10:17:59.475Z,89.90
2022-11-05T10:20:38.360Z,90.10
2022-11-05T10:23:18.443Z,90.00
2022-11-05T10:25:56.321Z,89.90
2022-11-05T10:28:28.635Z,89.70
2022-11-05T10:31:02.321Z,89.50
2022-11-05T10:33:50.798Z,89.70
2022-11-05T10:36:32.436Z,89.60
2022-11-05T10:39:20.431Z,89.40
2022-11-05T10:42:10.000Z,89.60
2022-11-05T10:45:17.881Z,89.60
2022-11-05T10:48:26.261Z,89.30
2022-11-05T10:50:54.186Z,89.40
2022-11-05T10:53:34.401Z,89.80
2022-11-05T10:56:02.076Z,89.30
2022-11-05T10:58:32.555Z,89.30
2022-11-05T11:01:02.251Z,89.20
2022-11-05T11:03:38.367Z,89.20
2022-11-05T11:06:27.037Z,89.40
2022-11-05T11:08:58.155Z,89.00
2022-11-05T11:11:34.322Z,88.70
2022-11-05T11:14:05.157Z,88.90
2022-11-05T11:16:44.282Z,88.90
2022-11-05T11:19:26.821Z,88.40
2022-11-05T11:22:07.118Z,88.90
2022-11-05T11:24:47.323Z,88.70
2022-11-05T11:27:25.556Z,88.80
2022-11-05T11:29:59.755Z,88.50
2022-11-05T11:32:47.381Z,88.60
2022-11-05T11:35:24.253Z,88.50
2022-11-05T11:37:57.117Z,88.50
2022-11-05T11:40:32.881Z,87.90
2022-11-05T11:43:13.333Z,88.40
2022-11-05T11:45:48.514Z,88.30
2022-11-05T11:48:34.617Z,88.50
2022-11-05T11:51:25.795Z,88.00
2022-11-05T11:53:58.258Z,87.10
2022-11-05T11:56:26.656Z,87.60
2022-11-05T11:58:56.085Z,87.60
2022-11-05T12:01:39.173Z,87.70
2022-11-05T12:04:47.682Z,87.30
2022-11-05T12:07:22.045Z,87.40
2022-11-05T12:10:17.397Z,87.30
2022-11-05T12:12:53.231Z,87.20
2022-11-05T12:15:39.341Z,87.30
2022-11-05T12:18:18.214Z,87.20
2022-11-05T12:20:58.531Z,87.30
2022-11-05T12:23:35.263Z,87.10
2022-11-05T12:26:18.992Z,86.90
2022-11-05T12:29:18.968Z,87.40
2022-11-05T12:31:55.796Z,87.10
2022-11-05T12:34:30.544Z,87.30
2022-11-05T12:37:21.036Z,86.40
2022-11-05T12:40:13.068Z,86.70
2022-11-05T12:43:03.538Z,86.40
2022-11-05T12:45:54.556Z,86.80
2022-11-05T12:48:43.198Z,86.60
2022-11-05T12:51:48.232Z,86.70
2022-11-05T12:55:04.441Z,86.50
2022-11-05T12:57:35.995Z,86.60
2022-11-05T13:00:10.953Z,86.80
2022-11-05T13:02:55.316Z,86.50
2022-11-05T13:05:33.589Z,86.50
2022-11-05T13:08:24.757Z,86.70
2022-11-05T13:11:12.117Z,86.60
2022-11-05T13:13:47.592Z,86.80
2022-11-05T13:16:31.279Z,86.80
2022-11-05T13:19:03.818Z,86.90
2022-11-05T13:21:32.898Z,87.00
2022-11-05T13:24:13.786Z,87.00
2022-11-05T13:26:55.971Z,87.00
2022-11-05T13:29:41.829Z,86.30
2022-11-05T13:32:29.995Z,86.90
2022-11-05T13:35:02.463Z,86.60
2022-11-05T13:37:54.331Z,87.30
2022-11-05T13:40:31.216Z,87.00
2022-11-05T13:43:16.336Z,86.80
2022-11-05T13:46:04.465Z,87.50
2022-11-05T13:48:42.466Z,87.10
2022-11-05T13:51:47.093Z,86.60
2022-11-05T13:54:46.974Z,86.80
2022-11-05T13:57:37.429Z,87.30
2022-11-05T14:00:11.851Z,87.20
2022-11-05T14:02:44.527Z,88.10
2022-11-05T14:05:30.938Z,87.50
2022-11-05T14:08:01.672Z,87.10
2022-11-05T14:10:42.214Z,87.60
2022-11-05T14:13:42.688Z,87.70
2022-11-05T14:16:25.318Z,87.50
2022-11-05T14:19:18.477Z,88.00
2022-11-05T14:21:51.627Z,88.60
2022-11-05T14:24:22.154Z,88.60
2022-11-05T14:27:02.754Z,89.20
2022-11-05T14:29:42.279Z,89.10
2022-11-05T14:32:21.760Z,89.60
2022-11-05T14:34:57.392Z,90.20
2022-11-05T14:37:30.717Z,90.70
2022-11-05T14:40:22.083Z,90.70
2022-11-05T14:43:02.364Z,90.90
2022-11-05T14:45:33.519Z,91.80
2022-11-05T14:48:03.834Z,91.60
2022-11-05T14:50:41.196Z,92.10
2022-11-05T14:53:25.636Z,92.30
2022-11-05T14:56:09.963Z,92.30
2022-11-05T14:58:40.773Z,92.70
2022-11-05T15:01:30.482Z,92.90
2022-11-05T15:04:31.562Z,93.20
2022-11-05T15:07:34.403Z,93.20
2022-11-05T15:10:23.893Z,93.70
2022-11-05T15:13:04.382Z,93.60
2022-11-05T15:15:47.482Z,93.70
2022-11-05T15:18:31.043Z,93.60
2022-11-05T15:21:02.370Z,93.80
2022-11-05T15:23:45.387Z,93.50
2022-11-05T15:26:20.994Z,93.50
2022-11-05T15:28:51.291Z,93.70
2022-11-05T15:31:36.523Z,94.00
2022-11-05T15:34:16.790Z,94.00
2022-11-05T15:36:58.003Z,94.10
2022-11-05T15:39:41.788Z,93.80
2022-11-05T15:42:24.057Z,93.60
2022-11-05T15:44:55.413Z,93.90
2022-11-05T15:47:30.535Z,93.90
2022-11-05T15:50:01.656Z,93.80
2022-11-05T15:52:42.537Z,93.90
2022-11-05T15:55:25.315Z,93.70
2022-11-05T15:58:06.846Z,93.60
2022-11-05T16:00:36.739Z,94.20
2022-11-05T16:03:25.292Z,94.10
2022-11-05T16:05:54.225Z,93.80
2022-11-05T16:08:30.750Z,93.90
2022-11-05T16:10:59.959Z,93.60
2022-11-05T16:13:37.946Z,93.60
2022-11-05T16:16:23.551Z,93.40
2022-11-05T16:18:51.256Z,93.70
2022-11-05T16:21:23.057Z,93.30
2022-11-05T16:23:58.362Z,93.80
2022-11-05T16:27:01.734Z,93.70
2022-11-05T16:29:30.284Z,93.50
2022-11-05T16:32:00.280Z,93.90
2022-11-05T16:34:41.220Z,94.00
2022-11-05T16:37:16.675Z,94.00
2022-11-05T16:39:44.300Z,94.30
2022-11-05T16:42:23.710Z,94.50
2022-11-05T16:44:52.271Z,94.30
2022-11-05T16:47:22.618Z,94.20
2022-11-05T16:49:51.199Z,93.60
2022-11-05T16:52:19.943Z,95.70
2022-11-05T16:54:47.460Z,93.80
2022-11-05T16:57:26.299Z,94.10
2022-11-05T16:59:55.081Z,94.20
2022-11-05T17:02:23.077Z,95.00
2022-11-05T17:04:50.916Z,94.30
2022-11-05T17:07:18.569Z,94.40
2022-11-05T17:09:46.361Z,94.50
2022-11-05T17:12:15.003Z,94.60
2022-11-05T17:14:44.106Z,95.10
2022-11-05T17:17:12.281Z,95.20
2022-11-05T17:19:44.745Z,95.20
2022-11-05T17:22:12.946Z,95.20
2022-11-05T17:24:40.487Z,95.80
2022-11-05T17:27:08.198Z,95.70
2022-11-05T17:29:36.514Z,95.50
2022-11-05T17:32:06.501Z,95.90
2022-11-05T17:34:34.013Z,95.40
2022-11-05T17:37:01.521Z,95.20
2022-11-05T17:39:31.759Z,94.90
2022-11-05T17:42:00.241Z,95.50
2022-11-05T17:44:30.376Z,95.20
2022-11-05T17:46:57.996Z,95.60
2022-11-05T17:49:25.646Z,95.70
2022-11-05T17:51:53.162Z,95.80
2022-11-05T17:54:20.893Z,95.50
2022-11-05T17:56:48.840Z,95.80
2022-11-05T17:59:19.027Z,96.00
2022-11-05T18:01:48.316Z,95.60
2022-11-05T18:04:16.282Z,95.80
2022-11-05T18:06:45.071Z,95.80
2022-11-05T18:09:13.451Z,95.50
2022-11-05T18:11:42.081Z,95.40
2022-11-05T18:14:11.206Z,95.70
2022-11-05T18:16:39.241Z,95.80
2022-11-05T18:19:06.956Z,95.80
2022-11-05T18:21:34.566Z,95.70
2022-11-05T18:24:07.006Z,96.20
2022-11-05T18:26:35.292Z,96.10
2022-11-05T18:29:04.563Z,95.90
2022-11-05T18:31:34.466Z,96.50
2022-11-05T18:34:04.160Z,96.70
2022-11-05T18:36:33.118Z,96.70
2022-11-05T18:39:04.677Z,97.30
2022-11-05T18:41:33.380Z,97.30
2022-11-05T18:44:02.568Z,97.30
2022-11-05T18:46:58.945Z,97.40
2022-11-05T18:49:19.333Z,97.80
2022-11-05T18:51:47.002Z,97.70
2022-11-05T18:54:15.097Z,97.50
2022-11-05T18:56:45.893Z,98.10
2022-11-05T18:59:39.203Z,98.30
2022-11-05T19:02:08.648Z,97.80
2022-11-05T19:04:37.523Z,98.20
2022-11-05T19:07:06.058Z,98.50
2022-11-05T19:09:38.977Z,98.40
2022-11-05T19:12:08.613Z,98.80
2022-11-05T19:14:36.852Z,98.60
2022-11-05T19:17:04.918Z,98.40
2022-11-05T19:19:32.603Z,98.50
2022-11-05T19:22:00.123Z,98.70
2022-11-05T19:24:29.631Z,98.60
2022-11-05T19:26:58.416Z,98.30
2022-11-05T19:29:26.051Z,98.70
2022-11-05T19:31:53.516Z,99.00
2022-11-05T19:34:21.172Z,98.80
2022-11-05T19:36:48.802Z,98.50
2022-11-05T19:39:16.617Z,99.00
2022-11-05T19:41:44.208Z,99.20
2022-11-05T19:44:11.957Z,99.00
2022-11-05T19:46:39.722Z,99.30
2022-11-05T19:49:07.211Z,99.30
2022-11-05T19:51:34.881Z,99.20
2022-11-05T19:54:04.213Z,99.70
2022-11-05T19:56:34.932Z,99.50
2022-11-05T19:59:07.682Z,98.80
2022-11-05T20:01:37.000Z,98.90
2022-11-05T20:04:05.262Z,99.30
2022-11-05T20:06:38.121Z,98.90
2022-11-05T20:09:21.507Z,98.50
2022-11-05T20:11:51.330Z,99.10
2022-11-05T20:14:18.962Z,99.20
2022-11-05T20:16:49.518Z,99.00
2022-11-05T20:19:20.585Z,99.40
2022-11-05T20:21:48.323Z,99.40
2022-11-05T20:24:23.747Z,99.10
2022-11-05T20:26:54.215Z,99.20
2022-11-05T20:29:22.892Z,99.60
2022-11-05T20:31:51.163Z,99.80
2022-11-05T20:34:18.771Z,99.70
2022-11-05T20:36:46.322Z,99.90
2022-11-05T20:39:13.922Z,99.80
2022-11-05T20:41:41.575Z,99.60
2022-11-05T20:44:09.166Z,99.50
2022-11-05T20:46:36.800Z,99.90
2022-11-05T20:49:04.282Z,99.90
2022-11-05T20:51:32.122Z,99.40
2022-11-05T20:54:01.485Z,99.90
2022-11-05T20:56:32.236Z,99.90
2022-11-05T20:59:01.038Z,99.70
2022-11-05T21:01:31.447Z,99.90
2022-11-05T21:04:00.155Z,99.90
2022-11-05T21:06:28.021Z,99.90
2022-11-05T21:08:55.894Z,99.70
2022-11-05T21:11:23.853Z,99.50
2022-11-05T21:13:51.373Z,99.60
2022-11-05T21:16:20.063Z,99.90
2022-11-05T21:18:48.256Z,99.80
2022-11-05T21:21:19.158Z,99.90
2022-11-05T21:23:47.135Z,99.90
2022-11-05T21:26:18.050Z,99.90
2022-11-05T21:28:45.968Z,99.90
2022-11-05T21:31:13.608Z,99.90
2022-11-05T21:33:41.136Z,99.90
2022-11-05T21:36:13.733Z,99.90
2022-11-05T21:38:42.013Z,99.90
2022-11-05T21:41:12.658Z,99.90
2022-11-05T21:43:42.088Z,99.90
2022-11-05T21:46:12.520Z,99.90
2022-11-05T21:48:40.348Z,99.90
2022-11-05T21:51:26.739Z,99.90
2022-11-05T21:54:12.929Z,99.90
2022-11-05T21:56:58.609Z,99.90
2022-11-05T21:59:44.849Z,99.90
2022-11-05T22:02:14.078Z,99.90
2022-11-05T22:04:45.693Z,99.90
2022-11-05T22:07:16.049Z,99.90
2022-11-05T22:09:43.869Z,99.90
2022-11-05T22:12:11.974Z,99.90
2022-11-05T22:14:40.253Z,99.90
2022-11-05T22:17:09.220Z,99.90
2022-11-05T22:19:37.133Z,99.90
2022-11-05T22:22:06.098Z,99.90
2022-11-05T22:24:34.932Z,99.90
2022-11-05T22:27:05.213Z,99.90
2022-11-05T22:29:32.729Z,99.90
2022-11-05T22:32:00.554Z,99.90
2022-11-05T22:34:28.541Z,99.90
2022-11-05T22:36:56.099Z,99.90
2022-11-05T22:39:26.068Z,99.90
2022-11-05T22:43:20.733Z,99.90
2022-11-05T22:45:48.376Z,99.90
2022-11-05T22:48:16.173Z,99.90
2022-11-05T22:50:43.754Z,99.90
2022-11-05T22:53:11.439Z,99.90
2022-11-05T22:55:41.995Z,99.90
2022-11-05T22:58:09.888Z,99.90
2022-11-05T23:00:39.685Z,99.90
2022-11-05T23:03:07.300Z,99.90
2022-11-05T23:05:35.095Z,99.90
2022-11-05T23:08:21.452Z,99.90
2022-11-05T23:11:07.322Z,99.90
2022-11-05T23:13:34.834Z,99.90
2022-11-05T23:16:21.039Z,99.90
2022-11-05T23:19:10.316Z,99.90
2022-11-05T23:21:56.374Z,99.90
2022-11-05T23:24:24.351Z,99.90
2022-11-05T23:26:52.057Z,99.90
2022-11-05T23:29:25.136Z,99.90
2022-11-05T23:32:12.075Z,99.90
2022-11-05T23:34:39.845Z,99.90
2022-11-05T23:37:26.368Z,99.90
2022-11-05T23:39:54.194Z,99.90
2022-11-05T23:42:40.768Z,99.90
2022-11-05T23:45:27.208Z,99.90
2022-11-05T23:48:13.594Z,99.90
2022-11-05T23:50:42.359Z,99.90
2022-11-05T23:53:10.836Z,99.90
2022-11-05T23:55:40.075Z,99.90
2022-11-05T23:58:08.041Z,99.90
